Time;durP1;ratioP1;P1;durP2;ratioP2;P2;SDS_P1;SDS_P2;PMS_P1;PMS_P2;Temp;Humidity;BMP_temperature;BMP_pressure;BME280_temperature;BME280_humidity;BME280_pressure;Samples;Min_cycle;Max_cycle;Signal;HPM_P1;HPM_P2
2022/05/19 00:01:30;;;;;;;10.23;5.80;;;22.50;99.90;;;;;;5032532;28;20093;-59
2022/05/19 00:03:55;;;;;;;10.10;5.57;;;22.60;99.90;;;;;;5015163;28;20025;-58
2022/05/19 00:06:21;;;;;;;11.25;5.70;;;22.40;99.90;;;;;;5014548;28;20437;-58
2022/05/19 00:08:47;;;;;;;12.13;5.47;;;22.30;99.90;;;;;;5032449;28;20021;-59
2022/05/19 00:11:15;;;;;;;8.85;5.60;;;22.20;99.90;;;;;;5032400;28;20021;-58
2022/05/19 00:13:41;;;;;;;12.20;5.75;;;22.20;99.90;;;;;;5032436;28;20120;-58
2022/05/19 00:16:08;;;;;;;9.95;5.72;;;22.40;99.90;;;;;;5032768;28;20113;-59
2022/05/19 00:18:35;;;;;;;9.68;5.55;;;22.40;99.90;;;;;;5032056;28;20029;-59
2022/05/19 00:21:01;;;;;;;12.05;5.38;;;22.50;99.90;;;;;;5014150;28;20045;-58
2022/05/19 00:23:27;;;;;;;8.27;5.18;;;22.50;99.90;;;;;;5032196;28;20386;-58
2022/05/19 00:25:53;;;;;;;12.75;5.40;;;22.60;99.90;;;;;;5032297;28;20022;-59
2022/05/19 00:28:18;;;;;;;13.30;4.85;;;22.60;99.90;;;;;;5032173;28;20028;-58
2022/05/19 00:30:44;;;;;;;11.65;4.82;;;22.40;99.90;;;;;;5031965;28;20022;-58
2022/05/19 00:33:11;;;;;;;8.73;4.82;;;22.30;99.90;;;;;;5032046;28;20413;-58
2022/05/19 00:35:38;;;;;;;7.35;4.65;;;22.20;99.90;;;;;;5032093;28;20041;-59
2022/05/19 00:38:04;;;;;;;7.35;4.82;;;22.20;99.90;;;;;;5013961;28;20037;-58
2022/05/19 00:40:30;;;;;;;5.93;4.43;;;22.30;99.90;;;;;;5031718;28;20112;-58
2022/05/19 00:42:55;;;;;;;10.32;4.68;;;22.40;99.90;;;;;;5032079;28;20029;-59
2022/05/19 00:45:25;;;;;;;7.63;4.20;;;22.40;99.90;;;;;;5031958;28;20018;-59
2022/05/19 00:47:53;;;;;;;13.15;4.72;;;22.40;99.90;;;;;;5031813;28;20036;-58
2022/05/19 00:50:33;;;;;;;8.52;5.05;;;22.50;99.90;;;;;;5031631;28;20053;-58
2022/05/19 00:53:04;;;;;;;7.47;4.20;;;22.80;99.90;;;;;;5014002;28;20060;-59
2022/05/19 00:55:38;;;;;;;7.18;4.35;;;22.90;99.90;;;;;;5031747;28;20025;-58
2022/05/19 00:58:19;;;;;;;9.63;5.30;;;22.70;99.90;;;;;;5013979;28;20449;-58
2022/05/19 01:00:45;;;;;;;7.80;4.60;;;22.90;99.90;;;;;;5031576;28;20047;-58
2022/05/19 01:03:15;;;;;;;9.48;4.47;;;22.80;99.90;;;;;;5031531;28;20040;-58
2022/05/19 01:05:43;;;;;;;10.13;4.60;;;22.60;99.90;;;;;;5031843;28;20104;-58
2022/05/19 01:08:21;;;;;;;11.90;5.05;;;22.60;99.90;;;;;;5031717;28;20087;-58
2022/05/19 01:10:48;;;;;;;7.40;4.18;;;22.70;99.90;;;;;;5031687;28;20079;-59
2022/05/19 01:13:15;;;;;;;7.63;4.40;;;22.50;99.90;;;;;;5031408;28;20470;-59
2022/05/19 01:15:48;;;;;;;9.75;4.38;;;22.50;99.90;;;;;;5013852;28;20025;-58
2022/05/19 01:18:15;;;;;;;10.77;4.50;;;22.60;99.90;;;;;;5031330;28;20083;-58
2022/05/19 01:20:42;;;;;;;5.55;4.22;;;22.40;99.90;;;;;;5031086;28;20060;-58
2022/05/19 01:23:38;;;;;;;8.88;4.30;;;22.40;99.90;;;;;;5031393;28;20414;-58
2022/05/19 01:26:27;;;;;;;10.45;4.50;;;22.30;99.90;;;;;;5031500;28;20561;-58
2022/05/19 01:28:56;;;;;;;8.50;4.93;;;22.20;99.90;;;;;;5013557;28;20030;-59
2022/05/19 01:31:43;;;;;;;9.52;5.13;;;22.10;99.90;;;;;;5013553;28;20029;-58
2022/05/19 01:34:09;;;;;;;9.95;6.20;;;22.00;99.90;;;;;;5031378;28;20056;-58
2022/05/19 01:36:35;;;;;;;8.50;5.72;;;22.00;99.90;;;;;;5031505;28;20045;-58
2022/05/19 01:39:08;;;;;;;13.48;6.30;;;21.70;99.90;;;;;;5031486;28;20040;-58
2022/05/19 01:42:08;;;;;;;12.73;7.88;;;21.60;99.90;;;;;;5031173;28;20022;-58
2022/05/19 01:44:52;;;;;;;18.42;7.70;;;21.50;99.90;;;;;;5031432;28;20017;-58
2022/05/19 01:47:30;;;;;;;12.43;7.70;;;21.40;99.90;;;;;;5031296;28;20049;-59
2022/05/19 01:50:02;;;;;;;13.05;7.78;;;21.30;99.90;;;;;;5031134;28;20433;-59
2022/05/19 01:52:45;;;;;;;12.82;7.90;;;21.40;99.90;;;;;;5016583;28;20049;-58
2022/05/19 01:55:29;;;;;;;13.68;7.78;;;21.50;99.90;;;;;;5034876;28;20037;-59
2022/05/19 01:58:14;;;;;;;31.05;10.32;;;21.50;99.90;;;;;;5034357;28;20025;-58
2022/05/19 02:00:41;;;;;;;21.63;9.57;;;21.60;99.90;;;;;;5034439;28;20071;-64
2022/05/19 02:03:21;;;;;;;18.52;9.55;;;21.50;99.90;;;;;;5016732;28;20482;-64
2022/05/19 02:06:04;;;;;;;14.70;9.52;;;21.20;99.90;;;;;;5017018;28;20022;-65
2022/05/19 02:08:42;;;;;;;16.58;9.82;;;21.10;99.90;;;;;;5016597;28;20032;-62
2022/05/19 02:11:13;;;;;;;25.27;11.73;;;21.10;99.90;;;;;;5034319;28;20025;-64
2022/05/19 02:13:39;;;;;;;30.92;12.30;;;21.00;99.90;;;;;;5016620;28;20021;-65
2022/05/19 02:16:09;;;;;;;17.05;10.80;;;20.80;99.90;;;;;;5034895;28;20014;-68
2022/05/19 02:18:35;;;;;;;21.38;10.25;;;20.60;99.90;;;;;;5034185;28;20029;-65
2022/05/19 02:21:04;;;;;;;18.83;8.45;;;20.30;99.90;;;;;;5016640;28;20052;-65
2022/05/19 02:23:32;;;;;;;13.50;7.90;;;20.00;99.90;;;;;;5034433;28;20025;-65
2022/05/19 02:25:58;;;;;;;19.67;8.57;;;20.00;99.90;;;;;;5016851;28;20021;-65
2022/05/19 02:28:38;;;;;;;18.75;8.57;;;19.90;99.90;;;;;;5034406;28;20169;-65
2022/05/19 02:31:03;;;;;;;11.52;7.47;;;19.90;99.90;;;;;;5034630;28;20027;-64
2022/05/19 02:33:30;;;;;;;17.25;8.30;;;19.70;99.90;;;;;;5016456;28;20025;-65
2022/05/19 02:35:55;;;;;;;21.15;9.43;;;19.50;99.90;;;;;;5034434;28;20474;-64
2022/05/19 02:38:22;;;;;;;15.65;9.95;;;19.30;99.90;;;;;;5016937;28;20028;-64
2022/05/19 02:40:49;;;;;;;17.92;10.38;;;19.40;99.90;;;;;;5035151;28;20045;-63
2022/05/19 02:43:16;;;;;;;22.35;10.75;;;19.20;99.90;;;;;;5035626;28;20142;-63
2022/05/19 02:45:42;;;;;;;17.30;11.43;;;19.10;99.90;;;;;;5035210;28;20080;-62
2022/05/19 02:48:10;;;;;;;22.23;10.90;;;19.20;99.90;;;;;;5034015;28;20022;-61
2022/05/19 02:50:37;;;;;;;14.13;10.30;;;19.10;99.90;;;;;;5016350;28;20382;-61
2022/05/19 02:53:03;;;;;;;16.60;11.13;;;19.00;99.90;;;;;;5016383;28;20033;-61
2022/05/19 02:55:29;;;;;;;14.20;9.63;;;19.10;99.90;;;;;;5033758;28;20041;-61
2022/05/19 02:57:55;;;;;;;12.30;8.23;;;19.00;99.90;;;;;;5033699;28;20415;-61
2022/05/19 03:00:22;;;;;;;7.20;5.93;;;18.90;99.90;;;;;;5033545;28;20037;-60
2022/05/19 03:02:48;;;;;;;7.47;4.78;;;18.80;99.90;;;;;;5033294;28;20038;-60
2022/05/19 03:05:17;;;;;;;10.00;6.20;;;18.60;99.90;;;;;;5033655;28;20056;-60
2022/05/19 03:07:43;;;;;;;10.73;6.28;;;18.70;99.90;;;;;;5015848;28;20056;-60
2022/05/19 03:10:09;;;;;;;9.60;6.47;;;18.80;99.90;;;;;;5033472;28;20068;-60
2022/05/19 03:12:35;;;;;;;8.88;5.88;;;18.80;99.90;;;;;;5033348;28;20036;-60
2022/05/19 03:15:03;;;;;;;11.43;6.20;;;18.90;99.90;;;;;;5033523;28;20033;-60
2022/05/19 03:17:28;;;;;;;13.90;6.70;;;18.80;99.90;;;;;;5033459;28;20109;-60
2022/05/19 03:19:55;;;;;;;13.18;8.00;;;18.80;99.90;;;;;;5033476;28;20465;-65
2022/05/19 03:22:21;;;;;;;13.73;7.60;;;18.90;99.90;;;;;;5015459;28;20029;-66
2022/05/19 03:24:47;;;;;;;10.48;7.15;;;19.00;99.90;;;;;;5033196;28;20441;-64
2022/05/19 03:27:14;;;;;;;10.50;7.57;;;19.00;99.90;;;;;;5033201;28;20051;-63
2022/05/19 03:29:39;;;;;;;8.73;6.82;;;19.10;99.90;;;;;;5032766;28;20030;-64
2022/05/19 03:32:05;;;;;;;11.63;6.70;;;19.10;99.90;;;;;;5033025;28;20396;-64
2022/05/19 03:34:31;;;;;;;9.10;6.05;;;19.00;99.90;;;;;;5033349;28;20026;-63
2022/05/19 03:36:57;;;;;;;9.73;5.70;;;18.90;99.90;;;;;;5032678;28;20067;-62
2022/05/19 03:39:22;;;;;;;9.32;5.53;;;18.90;99.90;;;;;;5032655;28;20478;-62
2022/05/19 03:41:48;;;;;;;9.73;5.70;;;18.90;99.90;;;;;;5032487;28;20029;-61
2022/05/19 03:44:14;;;;;;;7.63;5.75;;;18.90;99.90;;;;;;5032951;28;20029;-61
2022/05/19 03:46:39;;;;;;;10.02;5.50;;;18.90;99.90;;;;;;5014875;28;20585;-61
2022/05/19 03:49:05;;;;;;;9.95;5.63;;;19.00;99.90;;;;;;5032797;28;20032;-61
2022/05/19 03:51:33;;;;;;;9.27;5.30;;;19.00;99.90;;;;;;5032364;28;20453;-60
2022/05/19 03:53:59;;;;;;;8.50;5.03;;;18.90;99.90;;;;;;5014868;28;20047;-60
2022/05/19 03:56:26;;;;;;;9.43;5.05;;;18.70;99.90;;;;;;5032516;28;20120;-60
2022/05/19 03:58:52;;;;;;;9.00;5.50;;;18.60;99.90;;;;;;5032461;28;20086;-60
2022/05/19 04:01:20;;;;;;;6.30;4.75;;;18.60;99.90;;;;;;5014784;28;20665;-60
2022/05/19 04:03:47;;;;;;;11.45;4.93;;;18.70;99.90;;;;;;5032458;28;20062;-60
2022/05/19 04:06:12;;;;;;;7.82;4.80;;;18.80;99.90;;;;;;5032453;28;20025;-60
2022/05/19 04:08:38;;;;;;;21.05;7.57;;;18.80;99.90;;;;;;5032105;28;20044;-64
2022/05/19 04:11:04;;;;;;;11.43;5.72;;;18.90;99.90;;;;;;5032215;28;20025;-64
2022/05/19 04:13:30;;;;;;;7.55;6.07;;;18.80;99.90;;;;;;5031741;28;20013;-64
2022/05/19 04:15:56;;;;;;;7.05;5.80;;;18.80;99.90;;;;;;5014384;28;20083;-63
2022/05/19 04:18:22;;;;;;;9.77;5.55;;;18.70;99.90;;;;;;5032256;28;20026;-63
2022/05/19 04:20:48;;;;;;;8.93;5.53;;;18.60;99.90;;;;;;5014111;28;20045;-62
2022/05/19 04:23:14;;;;;;;9.88;5.07;;;18.40;99.90;;;;;;5031998;28;20026;-61
2022/05/19 04:25:40;;;;;;;8.43;5.93;;;18.30;99.90;;;;;;5032075;28;20382;-61
2022/05/19 04:28:06;;;;;;;8.75;6.20;;;18.30;99.90;;;;;;5031974;28;20466;-61
2022/05/19 04:30:33;;;;;;;9.95;6.18;;;18.50;99.90;;;;;;5031747;28;20105;-61
2022/05/19 04:32:58;;;;;;;12.05;6.32;;;18.60;99.90;;;;;;5032032;28;20100;-61
2022/05/19 04:35:24;;;;;;;12.32;6.18;;;18.70;99.90;;;;;;5032253;28;20427;-61
2022/05/19 04:37:50;;;;;;;9.65;6.00;;;18.70;99.90;;;;;;5032246;28;20389;-60
2022/05/19 04:40:18;;;;;;;8.90;6.07;;;18.70;99.90;;;;;;5031784;28;20025;-60
2022/05/19 04:42:44;;;;;;;10.05;6.25;;;18.80;99.90;;;;;;5032043;28;20087;-60
2022/05/19 04:45:12;;;;;;;10.98;6.35;;;19.00;99.90;;;;;;5032436;28;20041;-61
2022/05/19 04:47:38;;;;;;;8.73;5.95;;;19.10;99.90;;;;;;5032408;28;20065;-61
2022/05/19 04:50:05;;;;;;;10.45;6.82;;;19.10;99.90;;;;;;5014610;28;20049;-60
2022/05/19 04:52:30;;;;;;;8.23;6.55;;;19.10;99.90;;;;;;5032387;28;20029;-61
2022/05/19 04:54:56;;;;;;;11.02;6.53;;;19.10;99.90;;;;;;5032564;28;20144;-61
2022/05/19 04:57:22;;;;;;;11.82;6.38;;;19.20;99.90;;;;;;5032360;28;20441;-60
2022/05/19 04:59:47;;;;;;;12.25;6.35;;;19.20;99.90;;;;;;5032489;28;20032;-60
2022/05/19 05:02:13;;;;;;;9.32;6.03;;;19.20;99.90;;;;;;5031764;28;20029;-60
2022/05/19 05:04:39;;;;;;;10.23;6.38;;;19.20;99.90;;;;;;5031969;28;20101;-60
2022/05/19 05:07:06;;;;;;;10.02;6.63;;;19.20;99.90;;;;;;5031863;28;20029;-60
2022/05/19 05:09:31;;;;;;;8.70;6.55;;;19.30;99.90;;;;;;5014207;28;20095;-60
2022/05/19 05:11:57;;;;;;;11.18;6.78;;;19.20;99.90;;;;;;5014366;28;20022;-60
2022/05/19 05:14:23;;;;;;;10.40;6.75;;;19.30;99.90;;;;;;5031865;28;20392;-60
2022/05/19 05:16:52;;;;;;;13.00;6.70;;;19.30;99.90;;;;;;5031767;28;20036;-60
2022/05/19 05:19:21;;;;;;;12.40;6.68;;;19.30;99.90;;;;;;5013745;28;20583;-60
2022/05/19 05:21:51;;;;;;;9.55;6.43;;;19.40;99.90;;;;;;5031753;28;20025;-60
2022/05/19 05:24:17;;;;;;;9.32;6.60;;;19.30;99.90;;;;;;5031806;28;20029;-60
2022/05/19 05:26:43;;;;;;;13.65;6.68;;;19.40;99.90;;;;;;5033514;28;20044;-61
2022/05/19 05:29:08;;;;;;;10.45;6.38;;;19.40;99.90;;;;;;5035040;28;20030;-59
2022/05/19 05:31:34;;;;;;;11.82;5.88;;;19.30;99.90;;;;;;5017853;28;20394;-60
2022/05/19 05:34:00;;;;;;;7.88;6.15;;;19.40;99.90;;;;;;5017414;28;20021;-60
2022/05/19 05:36:26;;;;;;;7.40;6.10;;;19.30;99.90;;;;;;5035349;28;20029;-60
2022/05/19 05:38:51;;;;;;;10.88;6.28;;;19.20;99.90;;;;;;5035308;28;20585;-60
2022/05/19 05:41:17;;;;;;;10.93;6.40;;;19.20;99.90;;;;;;5035097;28;20391;-60
2022/05/19 05:43:43;;;;;;;9.85;6.20;;;19.40;99.90;;;;;;5034462;28;20017;-60
2022/05/19 05:46:11;;;;;;;8.50;5.82;;;19.50;99.90;;;;;;5041836;28;20025;-60
2022/05/19 05:48:38;;;;;;;9.43;6.90;;;19.80;99.90;;;;;;5050967;28;20493;-59
2022/05/19 05:51:11;;;;;;;8.70;6.22;;;20.00;99.90;;;;;;5054241;28;20494;-59
2022/05/19 05:53:38;;;;;;;8.50;6.00;;;20.20;99.90;;;;;;5054327;28;20017;-59
2022/05/19 05:56:05;;;;;;;8.20;6.03;;;20.30;99.90;;;;;;5054413;28;20488;-60
2022/05/19 05:58:31;;;;;;;11.05;6.72;;;20.30;99.90;;;;;;5036565;28;20025;-59
2022/05/19 06:00:57;;;;;;;11.38;6.43;;;20.30;99.90;;;;;;5054353;28;20412;-60
2022/05/19 06:03:23;;;;;;;11.25;6.25;;;20.30;99.90;;;;;;5054356;28;20033;-59
2022/05/19 06:05:49;;;;;;;13.80;6.47;;;20.30;99.90;;;;;;5035953;28;20036;-59
2022/05/19 06:08:16;;;;;;;10.40;5.65;;;20.40;99.90;;;;;;5054140;28;20100;-59
2022/05/19 06:10:41;;;;;;;10.02;6.07;;;20.50;99.90;;;;;;5038303;28;20045;-59
2022/05/19 06:13:07;;;;;;;10.57;6.20;;;20.60;99.90;;;;;;5029934;28;20448;-60
2022/05/19 06:15:33;;;;;;;11.27;5.95;;;20.50;99.90;;;;;;5030282;28;20040;-59
2022/05/19 06:17:59;;;;;;;12.35;6.82;;;20.60;99.90;;;;;;5032776;28;20148;-59
2022/05/19 06:20:25;;;;;;;23.48;6.85;;;20.70;99.90;;;;;;5034959;28;20053;-58
2022/05/19 06:22:52;;;;;;;10.48;5.90;;;21.00;99.90;;;;;;5030061;28;20037;-59
2022/05/19 06:25:20;;;;;;;15.18;6.70;;;21.20;99.90;;;;;;5044465;28;20436;-60
2022/05/19 06:27:47;;;;;;;16.58;6.15;;;21.40;99.90;;;;;;5038480;28;20029;-58
2022/05/19 06:30:13;;;;;;;9.98;5.60;;;21.60;99.90;;;;;;5042545;28;20028;-60
2022/05/19 06:32:40;;;;;;;10.15;5.38;;;21.80;99.90;;;;;;5044219;28;20355;-59
2022/05/19 06:35:08;;;;;;;7.88;5.30;;;21.70;99.90;;;;;;5045207;28;20025;-59
2022/05/19 06:37:33;;;;;;;5.82;4.78;;;21.70;99.90;;;;;;5049033;28;20691;-59
2022/05/19 06:40:00;;;;;;;8.30;5.20;;;21.70;99.90;;;;;;5041561;28;20029;-59
2022/05/19 06:42:26;;;;;;;9.25;5.45;;;21.60;99.90;;;;;;5043550;28;20017;-59
2022/05/19 06:44:51;;;;;;;9.07;5.78;;;21.70;99.90;;;;;;5026983;28;20507;-59
2022/05/19 06:47:17;;;;;;;8.20;4.55;;;22.00;99.90;;;;;;5047936;28;20036;-59
2022/05/19 06:49:49;;;;;;;8.82;4.50;;;22.10;99.90;;;;;;5036094;28;20440;-59
2022/05/19 06:52:22;;;;;;;6.40;4.50;;;22.30;99.90;;;;;;5041745;28;20021;-59
2022/05/19 06:54:51;;;;;;;11.00;4.78;;;22.30;99.90;;;;;;5046726;28;20123;-59
2022/05/19 06:57:19;;;;;;;8.77;5.22;;;22.30;99.90;;;;;;5036080;28;20037;-59
2022/05/19 06:59:45;;;;;;;8.70;5.05;;;22.10;99.90;;;;;;5024991;28;20521;-59
2022/05/19 07:02:12;;;;;;;7.35;4.80;;;22.20;99.90;;;;;;5023935;28;21151;-59
2022/05/19 07:04:39;;;;;;;8.38;4.60;;;22.30;99.90;;;;;;5026579;28;20518;-59
2022/05/19 07:07:05;;;;;;;10.05;5.75;;;22.50;99.90;;;;;;5021789;28;21078;-59
2022/05/19 07:09:32;;;;;;;8.35;5.20;;;22.40;99.90;;;;;;5022462;28;20112;-59
2022/05/19 07:11:59;;;;;;;8.65;4.60;;;22.30;99.90;;;;;;5007118;28;20044;-59
2022/05/19 07:14:24;;;;;;;9.32;5.18;;;22.20;99.90;;;;;;5027526;28;20033;-59
2022/05/19 07:16:50;;;;;;;8.32;4.80;;;22.20;99.90;;;;;;5023990;28;20564;-59
2022/05/19 07:22:00;;;;;;;7.35;5.10;;;22.00;99.90;;;;;;5022472;28;20055;-59
2022/05/19 07:24:26;;;;;;;11.00;5.32;;;22.30;99.90;;;;;;5023006;28;20094;-59
2022/05/19 07:26:55;;;;;;;12.23;5.13;;;22.40;99.90;;;;;;4994037;28;21354;-59
2022/05/19 07:29:22;;;;;;;16.63;5.40;;;22.40;99.90;;;;;;5016773;28;20033;-59
2022/05/19 07:31:49;;;;;;;10.95;4.35;;;22.50;99.90;;;;;;5016428;28;20083;-59
2022/05/19 07:34:18;;;;;;;9.77;5.22;;;22.70;99.90;;;;;;4998758;28;20038;-59
2022/05/19 07:36:44;;;;;;;9.57;5.32;;;22.60;99.90;;;;;;5018433;28;20043;-59
2022/05/19 07:39:11;;;;;;;10.38;5.45;;;22.50;99.90;;;;;;5002166;28;20106;-59
2022/05/19 07:41:38;;;;;;;14.15;6.05;;;22.60;99.90;;;;;;5035444;28;20033;-60
2022/05/19 07:44:04;;;;;;;9.25;5.43;;;22.60;99.90;;;;;;5020679;28;20032;-59
2022/05/19 07:46:31;;;;;;;13.25;5.80;;;22.60;99.90;;;;;;5006426;28;20049;-59
2022/05/19 07:48:58;;;;;;;9.90;5.50;;;22.70;99.90;;;;;;5020627;28;20150;-59
2022/05/19 07:51:31;;;;;;;9.82;5.18;;;22.60;99.90;;;;;;5018089;28;20564;-59
2022/05/19 07:53:57;;;;;;;15.23;6.03;;;22.80;99.90;;;;;;5017539;28;20029;-59
2022/05/19 07:56:23;;;;;;;10.95;5.35;;;23.00;99.90;;;;;;5021572;28;20060;-58
2022/05/19 07:58:50;;;;;;;9.57;5.05;;;23.00;99.90;;;;;;5036648;28;20512;-58
2022/05/19 08:01:16;;;;;;;10.98;5.88;;;23.10;99.90;;;;;;5037921;28;20030;-58
2022/05/19 08:03:42;;;;;;;6.68;5.15;;;23.00;99.90;;;;;;5030053;28;20509;-58
2022/05/19 08:06:10;;;;;;;7.95;5.28;;;23.00;99.90;;;;;;5031797;28;20025;-58
2022/05/19 08:08:36;;;;;;;9.48;5.70;;;23.10;99.90;;;;;;5041844;28;20481;-58
2022/05/19 08:11:02;;;;;;;6.28;5.05;;;23.10;99.90;;;;;;5027324;28;20035;-59
2022/05/19 08:16:14;;;;;;;9.77;5.18;;;23.00;99.90;;;;;;5029605;28;20516;-59
2022/05/19 08:18:40;;;;;;;8.90;5.00;;;23.20;99.90;;;;;;5034284;28;20049;-58
2022/05/19 08:21:10;;;;;;;8.00;5.07;;;23.50;99.90;;;;;;5038188;28;20044;-59
2022/05/19 08:23:38;;;;;;;8.57;4.95;;;23.80;99.90;;;;;;5039549;28;20017;-58
2022/05/19 08:26:08;;;;;;;7.88;5.13;;;24.20;99.90;;;;;;5035478;28;20025;-58
2022/05/19 08:28:34;;;;;;;14.27;5.13;;;25.00;99.90;;;;;;5021733;28;20120;-58
2022/05/19 08:31:04;;;;;;;9.88;5.00;;;25.80;99.90;;;;;;5021304;28;20129;-58
2022/05/19 08:33:31;;;;;;;9.98;4.57;;;26.30;99.90;;;;;;5022413;28;20033;-58
2022/05/19 08:35:56;;;;;;;6.97;4.50;;;26.70;99.90;;;;;;5035558;28;20386;-58
2022/05/19 08:38:22;;;;;;;8.52;4.22;;;26.80;99.90;;;;;;5013804;28;20064;-58
2022/05/19 08:41:04;;;;;;;6.82;4.30;;;27.00;99.90;;;;;;5023014;28;20036;-58
2022/05/19 08:43:47;;;;;;;8.05;4.35;;;27.30;99.90;;;;;;5025439;28;20091;-58
2022/05/19 08:46:27;;;;;;;7.15;4.95;;;27.10;99.90;;;;;;5022162;28;20029;-58
2022/05/19 08:48:59;;;;;;;7.40;4.70;;;27.70;99.90;;;;;;5023784;28;20033;-58
2022/05/19 08:51:33;;;;;;;8.02;4.57;;;27.80;99.90;;;;;;5026246;28;20604;-58
2022/05/19 08:54:04;;;;;;;8.27;4.70;;;27.40;99.90;;;;;;5029736;28;20052;-58
2022/05/19 08:56:45;;;;;;;8.93;4.35;;;27.20;99.90;;;;;;5013961;28;20065;-58
2022/05/19 08:59:41;;;;;;;8.15;4.35;;;27.20;99.90;;;;;;5021644;28;20454;-58
2022/05/19 09:02:14;;;;;;;7.85;4.60;;;27.60;99.90;;;;;;5031175;28;20026;-58
2022/05/19 09:05:08;;;;;;;6.50;4.82;;;28.20;99.90;;;;;;5019710;28;20358;-58
2022/05/19 09:07:59;;;;;;;7.40;4.80;;;28.70;99.90;;;;;;5043204;28;20151;-58
2022/05/19 09:10:55;;;;;;;7.72;4.97;;;28.80;99.90;;;;;;5041210;28;20025;-58
2022/05/19 09:13:30;;;;;;;11.60;5.88;;;27.80;99.90;;;;;;5045169;28;20096;-58
2022/05/19 09:15:55;;;;;;;11.20;5.90;;;26.80;99.90;;;;;;5047843;28;20637;-58
2022/05/19 09:18:31;;;;;;;13.90;5.60;;;26.30;99.90;;;;;;5020026;28;20082;-59
2022/05/19 09:20:58;;;;;;;9.85;5.38;;;26.60;99.90;;;;;;5046563;28;20045;-58
2022/05/19 09:23:24;;;;;;;6.68;5.20;;;27.50;99.90;;;;;;5039445;28;20064;-58
2022/05/19 09:25:54;;;;;;;10.60;6.07;;;28.30;99.90;;;;;;5028525;28;20125;-58
2022/05/19 09:28:20;;;;;;;8.02;5.63;;;28.70;99.90;;;;;;5026377;28;20029;-58
2022/05/19 09:30:50;;;;;;;7.75;5.82;;;29.30;99.90;;;;;;5030200;28;20025;-58
2022/05/19 09:33:22;;;;;;;10.13;6.15;;;30.00;99.50;;;;;;5011257;28;20032;-58
2022/05/19 09:35:55;;;;;;;13.77;5.30;;;30.20;99.10;;;;;;5042563;28;20563;-58
2022/05/19 09:38:26;;;;;;;12.05;5.00;;;30.50;98.50;;;;;;5042393;28;20378;-58
2022/05/19 09:40:58;;;;;;;12.47;6.03;;;30.00;98.90;;;;;;5043133;28;20035;-58
2022/05/19 09:43:32;;;;;;;10.45;5.63;;;30.10;98.60;;;;;;4997640;28;20294;-58
2022/05/19 09:46:16;;;;;;;11.23;5.70;;;30.80;98.30;;;;;;5020916;28;20662;-58
2022/05/19 09:49:02;;;;;;;7.60;5.53;;;31.00;97.50;;;;;;5010790;28;20104;-58
2022/05/19 09:51:49;;;;;;;7.97;6.18;;;29.70;99.20;;;;;;5031006;28;20029;-58
2022/05/19 09:54:15;;;;;;;12.02;6.63;;;27.90;99.90;;;;;;5029145;28;20037;-58
2022/05/19 09:57:13;;;;;;;10.10;6.57;;;26.90;99.90;;;;;;5031223;28;20036;-58
2022/05/19 09:59:50;;;;;;;9.48;6.88;;;26.40;99.90;;;;;;5021305;28;20045;-58
2022/05/19 10:02:30;;;;;;;9.80;6.50;;;26.00;99.90;;;;;;5024449;28;20037;-58
2022/05/19 10:04:59;;;;;;;17.33;5.97;;;25.70;99.90;;;;;;5023677;28;20036;-58
2022/05/19 10:07:29;;;;;;;20.23;6.47;;;25.00;99.90;;;;;;5030298;28;20029;-63
2022/05/19 10:09:56;;;;;;;15.60;3.47;;;22.60;99.90;;;;;;5021602;28;20029;-59
2022/05/19 10:12:44;;;;;;;4.30;1.83;;;20.80;99.90;;;;;;5038678;28;20039;-58
2022/05/19 10:15:13;;;;;;;12.00;4.93;;;19.50;99.90;;;;;;5037296;28;20037;-60
2022/05/19 10:17:51;;;;;;;17.52;7.95;;;18.80;99.90;;;;;;5044345;28;20025;-62
2022/05/19 10:20:30;;;;;;;13.45;8.05;;;18.60;99.90;;;;;;5028106;28;20045;-63
2022/05/19 10:23:14;;;;;;;12.77;7.40;;;18.00;99.90;;;;;;5049262;28;20033;-60
2022/05/19 10:25:46;;;;;;;11.10;5.45;;;18.10;99.90;;;;;;5047322;28;20055;-59
2022/05/19 10:31:45;;;;;;;14.77;7.28;;;18.30;99.90;;;;;;5044143;28;20432;-59
2022/05/19 10:34:31;;;;;;;11.27;6.22;;;18.40;99.90;;;;;;5044758;28;20025;-58
2022/05/19 10:37:05;;;;;;;12.98;7.78;;;18.50;99.90;;;;;;5047508;28;20025;-58
2022/05/19 10:39:50;;;;;;;12.35;7.10;;;18.60;99.90;;;;;;5039550;28;20033;-57
2022/05/19 10:42:25;;;;;;;15.30;7.68;;;18.70;99.90;;;;;;5047588;28;20472;-57
2022/05/19 10:45:09;;;;;;;9.07;7.93;;;18.70;99.90;;;;;;5046882;28;20024;-56
2022/05/19 10:47:47;;;;;;;13.88;9.05;;;18.70;99.90;;;;;;5044916;28;20078;-56
2022/05/19 10:50:35;;;;;;;14.40;11.30;;;18.80;99.90;;;;;;5044645;28;20496;-56
2022/05/19 10:53:12;;;;;;;19.30;12.30;;;19.00;99.90;;;;;;5039887;28;20127;-55
2022/05/19 10:56:08;;;;;;;17.02;11.52;;;19.10;99.90;;;;;;5045501;28;20442;-55
2022/05/19 10:59:09;;;;;;;15.30;11.13;;;19.30;99.90;;;;;;5041979;28;20041;-56
2022/05/19 11:01:56;;;;;;;21.13;14.18;;;19.60;99.90;;;;;;5042897;28;20037;-55
2022/05/19 11:04:34;;;;;;;13.80;12.25;;;20.00;99.90;;;;;;5045591;28;20152;-56
2022/05/19 11:07:37;;;;;;;16.23;13.82;;;20.60;99.90;;;;;;5045669;28;20061;-57
2022/05/19 11:10:17;;;;;;;16.02;14.43;;;21.10;99.90;;;;;;5021671;28;20040;-58
2022/05/19 11:13:01;;;;;;;19.25;15.38;;;21.00;99.90;;;;;;5019413;28;20041;-57
2022/05/19 11:15:39;;;;;;;15.02;13.38;;;21.00;99.90;;;;;;5021958;28;20465;-57
2022/05/19 11:18:23;;;;;;;17.67;14.10;;;20.60;99.90;;;;;;5019815;28;20037;-56
2022/05/19 11:21:12;;;;;;;15.45;13.15;;;20.50;99.90;;;;;;5003480;28;20065;-56
2022/05/19 11:24:14;;;;;;;17.25;13.80;;;20.50;99.90;;;;;;5015972;28;20621;-56
2022/05/19 11:26:56;;;;;;;16.17;13.55;;;20.60;99.90;;;;;;5020672;28;20774;-56
2022/05/19 11:29:34;;;;;;;15.82;13.20;;;20.70;99.90;;;;;;5020848;28;20049;-56
2022/05/19 11:32:05;;;;;;;14.27;11.95;;;20.60;99.90;;;;;;5025613;28;20029;-56
2022/05/19 11:34:41;;;;;;;20.92;12.98;;;20.30;99.90;;;;;;5025897;28;20033;-58
2022/05/19 11:37:31;;;;;;;12.35;11.15;;;20.10;99.90;;;;;;5025812;28;20520;-58
2022/05/19 11:40:18;;;;;;;13.80;11.23;;;20.10;99.90;;;;;;5024994;28;20037;-58
2022/05/19 11:43:01;;;;;;;12.32;10.70;;;20.10;99.90;;;;;;5021103;28;20037;-59
2022/05/19 11:45:37;;;;;;;12.90;9.95;;;20.50;99.90;;;;;;5019909;28;20035;-60
2022/05/19 11:57:24;;;;;;;11.57;6.20;;;23.70;99.90;;;;;;5020673;28;20187;-59
2022/05/19 11:59:55;;;;;;;10.85;5.53;;;24.20;99.90;;;;;;5021500;28;20045;-59
2022/05/19 12:02:28;;;;;;;9.90;5.00;;;25.30;99.90;;;;;;5024367;28;20032;-59
2022/05/19 12:05:10;;;;;;;11.30;4.90;;;25.50;99.90;;;;;;5022689;28;20067;-60
2022/05/19 12:07:49;;;;;;;7.45;4.90;;;25.50;99.90;;;;;;5024020;28;20028;-59
2022/05/19 12:10:19;;;;;;;6.20;4.15;;;25.00;99.90;;;;;;5004426;28;20029;-60
2022/05/19 12:12:54;;;;;;;7.00;5.40;;;24.30;99.90;;;;;;5022992;28;20029;-59
2022/05/19 12:15:31;;;;;;;8.57;6.10;;;24.70;99.90;;;;;;5027619;28;20040;-60
2022/05/19 12:17:59;;;;;;;6.80;6.10;;;23.40;99.90;;;;;;5037642;28;20036;-58
2022/05/19 12:20:51;;;;;;;11.00;7.30;;;22.00;99.90;;;;;;5015057;28;20049;-61
2022/05/19 12:23:19;;;;;;;10.68;8.90;;;20.70;99.90;;;;;;4998050;28;20471;-59
2022/05/19 12:25:50;;;;;;;12.98;11.40;;;20.40;99.90;;;;;;5020695;28;20030;-56
2022/05/19 12:28:19;;;;;;;14.88;12.25;;;20.20;99.90;;;;;;5016038;28;20505;-56
2022/05/19 12:33:56;;;;;;;11.13;9.00;;;21.10;99.90;;;;;;5023575;28;20083;-56
2022/05/19 12:36:47;;;;;;;9.05;7.30;;;21.50;99.90;;;;;;5016878;28;20043;-56
2022/05/19 12:39:24;;;;;;;9.73;7.60;;;22.90;99.90;;;;;;5018365;28;20093;-58
2022/05/19 12:41:50;;;;;;;6.60;5.90;;;23.40;99.90;;;;;;5023409;28;20037;-59
2022/05/19 12:44:47;;;;;;;5.38;4.88;;;24.20;99.90;;;;;;5023014;28;20575;-57
2022/05/19 12:47:23;;;;;;;5.55;4.93;;;24.10;99.90;;;;;;5003355;28;20068;-57
2022/05/19 12:50:08;;;;;;;6.03;4.40;;;24.80;99.90;;;;;;5020809;28;20030;-58
2022/05/19 12:52:53;;;;;;;4.47;3.92;;;25.10;99.90;;;;;;5024376;28;20136;-58
2022/05/19 12:55:27;;;;;;;6.70;3.72;;;24.80;99.90;;;;;;5022156;28;20059;-59
2022/05/19 13:40:47;;;;;;;2.53;2.22;;;23.30;99.90;;;;;;5099871;27;20396;-59
2022/05/19 13:43:29;;;;;;;3.45;1.98;;;25.10;99.90;;;;;;5073125;28;20028;-59
2022/05/19 13:45:56;;;;;;;;;;;26.10;99.90;;;;;;5080267;28;20078;-59
2022/05/19 13:48:39;;;;;;;5.00;2.40;;;26.80;99.90;;;;;;5065819;28;20500;-59
2022/05/19 13:51:26;;;;;;;2.90;2.53;;;26.10;99.90;;;;;;5029932;28;20017;-59
2022/05/19 13:54:13;;;;;;;3.20;1.98;;;26.20;99.90;;;;;;5039674;28;20029;-59
2022/05/19 13:56:40;;;;;;;3.95;2.20;;;26.00;99.90;;;;;;5025466;28;20029;-59
2022/05/19 13:59:09;;;;;;;3.60;1.90;;;25.20;99.90;;;;;;5054330;28;20044;-59
2022/05/19 14:01:37;;;;;;;3.85;1.90;;;24.90;99.90;;;;;;5057385;28;20067;-59
2022/05/19 14:04:07;;;;;;;2.30;1.60;;;25.80;99.90;;;;;;5064836;28;20115;-59
2022/05/19 14:06:36;;;;;;;2.70;1.55;;;26.30;99.90;;;;;;5060835;28;20473;-59